Salomonia, Indiana
Current Conditions -  °F | °C
As of 11:55 PM on Monday 20 Oct 2014 (Local Time) from KVES Reporting Station
Overcast Overcast  
Wind Chill: 52°   Ceiling: 5000
Heat Index: 52°   Visibility: 10mi
Dew Point: 50°   Wind: 7mph
Humidity: 94%   Direction: 300°WNW
Pressure: 29.91"   Gusts: NA
Location:  40.3534°N, 84.8526°W
Report Text: KVES 210355Z AUTO 30006KT 10SM SCT021 BKN050 OVC065 11/10 A2991 RMK AO2
Loading
Personal Weather Stations






























Interactive Weather Map New forecast layout! Learn more

10-Day Weather Forecast

Advertisements
Track Severe Weather on mobile